sensor_id;sensor_type;location;lat;lon;timestamp;pressure;altitude;pressure_sealevel;temperature;humidity
9822;BME280;4950;46.042;14.472;2023-04-10T00:02:26;98708.97;;;6.32;72.47
9822;BME280;4950;46.042;14.472;2023-04-10T00:04:53;98701.59;;;6.27;72.19
9822;BME280;4950;46.042;14.472;2023-04-10T00:07:19;98706.69;;;6.18;72.28
9822;BME280;4950;46.042;14.472;2023-04-10T00:09:46;98705.50;;;6.22;72.53
9822;BME280;4950;46.042;14.472;2023-04-10T00:12:13;98697.31;;;6.17;72.86
9822;BME280;4950;46.042;14.472;2023-04-10T00:14:41;98695.81;;;6.14;72.88
9822;BME280;4950;46.042;14.472;2023-04-10T00:17:07;98710.22;;;6.17;72.50
9822;BME280;4950;46.042;14.472;2023-04-10T00:19:34;98694.56;;;6.08;73.38
9822;BME280;4950;46.042;14.472;2023-04-10T00:22:01;98695.88;;;6.03;73.30
9822;BME280;4950;46.042;14.472;2023-04-10T00:24:27;98699.88;;;5.96;73.28
9822;BME280;4950;46.042;14.472;2023-04-10T00:26:54;98693.06;;;5.94;73.11
9822;BME280;4950;46.042;14.472;2023-04-10T00:29:21;98690.03;;;5.89;72.79
9822;BME280;4950;46.042;14.472;2023-04-10T00:31:49;98700.50;;;5.88;73.23
9822;BME280;4950;46.042;14.472;2023-04-10T00:34:16;98696.03;;;5.90;73.14
9822;BME280;4950;46.042;14.472;2023-04-10T00:36:44;98697.19;;;5.86;72.95
9822;BME280;4950;46.042;14.472;2023-04-10T00:39:10;98690.31;;;5.86;73.12
9822;BME280;4950;46.042;14.472;2023-04-10T00:41:37;98694.63;;;5.86;73.72
9822;BME280;4950;46.042;14.472;2023-04-10T00:44:03;98699.34;;;5.81;73.91
9822;BME280;4950;46.042;14.472;2023-04-10T00:46:30;98689.63;;;5.84;73.60
9822;BME280;4950;46.042;14.472;2023-04-10T00:49:00;98692.72;;;5.67;74.06
9822;BME280;4950;46.042;14.472;2023-04-10T00:51:27;98700.69;;;5.64;74.23
9822;BME280;4950;46.042;14.472;2023-04-10T00:53:54;98695.88;;;5.70;74.16
9822;BME280;4950;46.042;14.472;2023-04-10T00:56:23;98700.19;;;5.70;73.88
9822;BME280;4950;46.042;14.472;2023-04-10T00:58:50;98700.06;;;5.71;74.20
9822;BME280;4950;46.042;14.472;2023-04-10T01:01:16;98696.69;;;5.71;74.27
9822;BME280;4950;46.042;14.472;2023-04-10T01:03:43;98700.56;;;5.65;74.23
9822;BME280;4950;46.042;14.472;2023-04-10T01:06:16;98696.72;;;5.60;74.28
9822;BME280;4950;46.042;14.472;2023-04-10T01:08:50;98695.31;;;5.56;74.13
9822;BME280;4950;46.042;14.472;2023-04-10T01:11:41;98702.59;;;5.50;74.80
9822;BME280;4950;46.042;14.472;2023-04-10T01:14:15;98705.84;;;5.52;74.76
9822;BME280;4950;46.042;14.472;2023-04-10T01:16:49;98702.13;;;5.57;74.19
9822;BME280;4950;46.042;14.472;2023-04-10T01:19:25;98709.38;;;5.51;74.47
9822;BME280;4950;46.042;14.472;2023-04-10T01:21:57;98703.88;;;5.45;74.62
9822;BME280;4950;46.042;14.472;2023-04-10T01:24:39;98707.09;;;5.37;75.19
9822;BME280;4950;46.042;14.472;2023-04-10T01:27:25;98705.91;;;5.41;75.07
9822;BME280;4950;46.042;14.472;2023-04-10T01:30:00;98704.97;;;5.42;74.70
9822;BME280;4950;46.042;14.472;2023-04-10T01:32:29;98699.13;;;5.40;75.42
9822;BME280;4950;46.042;14.472;2023-04-10T01:35:01;98699.22;;;5.39;74.95
9822;BME280;4950;46.042;14.472;2023-04-10T01:37:31;98699.59;;;5.34;75.18
9822;BME280;4950;46.042;14.472;2023-04-10T01:40:01;98700.19;;;5.38;75.16
9822;BME280;4950;46.042;14.472;2023-04-10T01:42:31;98700.66;;;5.31;75.35
9822;BME280;4950;46.042;14.472;2023-04-10T01:45:00;98702.41;;;5.31;75.80
9822;BME280;4950;46.042;14.472;2023-04-10T01:47:28;98698.22;;;5.30;75.26
9822;BME280;4950;46.042;14.472;2023-04-10T01:49:56;98698.44;;;5.27;75.50
9822;BME280;4950;46.042;14.472;2023-04-10T01:52:24;98697.63;;;5.26;75.64
9822;BME280;4950;46.042;14.472;2023-04-10T01:54:52;98707.81;;;5.28;75.31
9822;BME280;4950;46.042;14.472;2023-04-10T01:57:20;98704.53;;;5.26;75.29
9822;BME280;4950;46.042;14.472;2023-04-10T01:59:48;98702.78;;;5.26;75.08
9822;BME280;4950;46.042;14.472;2023-04-10T02:02:15;98708.78;;;5.16;75.61
9822;BME280;4950;46.042;14.472;2023-04-10T02:04:42;98704.56;;;5.03;75.51
9822;BME280;4950;46.042;14.472;2023-04-10T02:07:16;98705.50;;;4.91;76.39
9822;BME280;4950;46.042;14.472;2023-04-10T02:09:48;98709.13;;;4.88;76.77
9822;BME280;4950;46.042;14.472;2023-04-10T02:12:21;98714.72;;;4.93;76.60
9822;BME280;4950;46.042;14.472;2023-04-10T02:14:49;98707.97;;;4.92;76.42
9822;BME280;4950;46.042;14.472;2023-04-10T02:17:22;98709.00;;;5.01;76.01
9822;BME280;4950;46.042;14.472;2023-04-10T02:19:52;98714.03;;;5.03;75.83
9822;BME280;4950;46.042;14.472;2023-04-10T02:22:19;98721.41;;;4.96;75.91
9822;BME280;4950;46.042;14.472;2023-04-10T02:24:47;98712.75;;;4.97;75.40
9822;BME280;4950;46.042;14.472;2023-04-10T02:27:14;98707.97;;;4.92;74.56
9822;BME280;4950;46.042;14.472;2023-04-10T02:29:41;98710.88;;;4.88;75.12
9822;BME280;4950;46.042;14.472;2023-04-10T02:32:08;98704.31;;;4.84;75.27
9822;BME280;4950;46.042;14.472;2023-04-10T02:34:36;98701.16;;;4.80;75.58
9822;BME280;4950;46.042;14.472;2023-04-10T02:37:02;98698.03;;;4.77;75.70
9822;BME280;4950;46.042;14.472;2023-04-10T02:39:29;98704.22;;;4.74;75.85
9822;BME280;4950;46.042;14.472;2023-04-10T02:41:55;98705.97;;;4.73;76.05
9822;BME280;4950;46.042;14.472;2023-04-10T02:44:22;98707.72;;;4.73;75.98
9822;BME280;4950;46.042;14.472;2023-04-10T02:46:48;98707.34;;;4.66;75.79
9822;BME280;4950;46.042;14.472;2023-04-10T02:49:15;98716.94;;;4.64;76.29
9822;BME280;4950;46.042;14.472;2023-04-10T02:51:43;98709.09;;;4.54;76.58
9822;BME280;4950;46.042;14.472;2023-04-10T02:54:10;98709.34;;;4.51;76.54
9822;BME280;4950;46.042;14.472;2023-04-10T02:56:36;98706.41;;;4.56;76.34
9822;BME280;4950;46.042;14.472;2023-04-10T02:59:03;98709.34;;;4.51;76.56
9822;BME280;4950;46.042;14.472;2023-04-10T03:01:29;98697.19;;;4.53;76.83
9822;BME280;4950;46.042;14.472;2023-04-10T03:03:56;98698.94;;;4.53;76.73
9822;BME280;4950;46.042;14.472;2023-04-10T03:06:23;98699.75;;;4.53;76.79
9822;BME280;4950;46.042;14.472;2023-04-10T03:08:52;98703.03;;;4.44;76.42
9822;BME280;4950;46.042;14.472;2023-04-10T03:11:19;98701.38;;;4.43;77.05
9822;BME280;4950;46.042;14.472;2023-04-10T03:13:46;98708.66;;;4.49;76.93
9822;BME280;4950;46.042;14.472;2023-04-10T03:16:13;98699.38;;;4.47;76.75
9822;BME280;4950;46.042;14.472;2023-04-10T03:18:39;98708.06;;;4.46;76.92
9822;BME280;4950;46.042;14.472;2023-04-10T03:21:06;98710.63;;;4.46;76.93
9822;BME280;4950;46.042;14.472;2023-04-10T03:23:33;98714.00;;;4.46;76.88
9822;BME280;4950;46.042;14.472;2023-04-10T03:26:01;98708.25;;;4.43;76.79
9822;BME280;4950;46.042;14.472;2023-04-10T03:28:29;98712.25;;;4.35;76.77
9822;BME280;4950;46.042;14.472;2023-04-10T03:30:57;98715.72;;;4.34;76.75
9822;BME280;4950;46.042;14.472;2023-04-10T03:33:23;98711.75;;;4.30;76.93
9822;BME280;4950;46.042;14.472;2023-04-10T03:35:50;98720.16;;;4.32;77.16
9822;BME280;4950;46.042;14.472;2023-04-10T03:38:17;98719.22;;;4.33;76.31
9822;BME280;4950;46.042;14.472;2023-04-10T03:40:44;98726.22;;;4.31;76.60
9822;BME280;4950;46.042;14.472;2023-04-10T03:43:12;98725.53;;;4.29;76.77
9822;BME280;4950;46.042;14.472;2023-04-10T03:45:39;98721.53;;;4.25;76.50
9822;BME280;4950;46.042;14.472;2023-04-10T03:48:05;98713.25;;;4.22;76.82
9822;BME280;4950;46.042;14.472;2023-04-10T03:50:32;98715.69;;;4.23;77.08
9822;BME280;4950;46.042;14.472;2023-04-10T03:52:59;98722.09;;;4.18;77.68
9822;BME280;4950;46.042;14.472;2023-04-10T03:55:26;98724.69;;;4.18;77.07
9822;BME280;4950;46.042;14.472;2023-04-10T03:57:52;98718.13;;;4.13;76.24
9822;BME280;4950;46.042;14.472;2023-04-10T04:00:20;98728.34;;;4.02;76.33
9822;BME280;4950;46.042;14.472;2023-04-10T04:02:47;98721.81;;;3.98;76.86
9822;BME280;4950;46.042;14.472;2023-04-10T04:05:14;98729.19;;;4.03;77.02
9822;BME280;4950;46.042;14.472;2023-04-10T04:07:41;98723.34;;;4.01;76.20
9822;BME280;4950;46.042;14.472;2023-04-10T04:10:08;98724.97;;;4.02;76.40
9822;BME280;4950;46.042;14.472;2023-04-10T04:12:34;98722.97;;;3.94;76.97
9822;BME280;4950;46.042;14.472;2023-04-10T04:15:01;98730.56;;;3.95;77.38
9822;BME280;4950;46.042;14.472;2023-04-10T04:17:29;98728.69;;;3.98;77.23
9822;BME280;4950;46.042;14.472;2023-04-10T04:19:56;98721.44;;;3.91;77.22
9822;BME280;4950;46.042;14.472;2023-04-10T04:22:22;98722.81;;;3.84;77.49
9822;BME280;4950;46.042;14.472;2023-04-10T04:24:49;98727.75;;;3.87;76.93
9822;BME280;4950;46.042;14.472;2023-04-10T04:27:16;98730.41;;;3.86;77.16
9822;BME280;4950;46.042;14.472;2023-04-10T04:29:45;98733.69;;;3.88;76.68
9822;BME280;4950;46.042;14.472;2023-04-10T04:32:12;98734.94;;;3.82;77.94
9822;BME280;4950;46.042;14.472;2023-04-10T04:34:40;98740.06;;;3.82;77.23
9822;BME280;4950;46.042;14.472;2023-04-10T04:37:06;98736.09;;;3.78;77.60
9822;BME280;4950;46.042;14.472;2023-04-10T04:39:33;98735.03;;;3.81;77.70
9822;BME280;4950;46.042;14.472;2023-04-10T04:42:00;98736.59;;;3.83;77.42
9822;BME280;4950;46.042;14.472;2023-04-10T04:44:26;98733.88;;;3.73;77.16
9822;BME280;4950;46.042;14.472;2023-04-10T04:46:53;98740.25;;;3.68;77.55
9822;BME280;4950;46.042;14.472;2023-04-10T04:49:19;98750.56;;;3.55;78.70
9822;BME280;4950;46.042;14.472;2023-04-10T04:51:47;98751.41;;;3.55;78.87
9822;BME280;4950;46.042;14.472;2023-04-10T04:54:14;98756.91;;;3.62;78.62
9822;BME280;4950;46.042;14.472;2023-04-10T04:56:40;98760.78;;;3.68;78.71
9822;BME280;4950;46.042;14.472;2023-04-10T04:59:07;98755.56;;;3.69;78.78
9822;BME280;4950;46.042;14.472;2023-04-10T05:01:33;98762.75;;;3.64;78.78
9822;BME280;4950;46.042;14.472;2023-04-10T05:04:00;98766.53;;;3.71;78.97
9822;BME280;4950;46.042;14.472;2023-04-10T05:06:26;98772.28;;;3.75;78.93
9822;BME280;4950;46.042;14.472;2023-04-10T05:08:54;98768.75;;;3.76;79.58
9822;BME280;4950;46.042;14.472;2023-04-10T05:11:21;98768.56;;;3.79;78.88
9822;BME280;4950;46.042;14.472;2023-04-10T05:13:48;98774.41;;;3.81;79.29
9822;BME280;4950;46.042;14.472;2023-04-10T05:16:14;98778.84;;;3.79;79.37
9822;BME280;4950;46.042;14.472;2023-04-10T05:18:41;98781.16;;;3.82;79.96
9822;BME280;4950;46.042;14.472;2023-04-10T05:21:07;98783.44;;;3.87;79.75
9822;BME280;4950;46.042;14.472;2023-04-10T05:23:34;98777.94;;;3.91;79.12
9822;BME280;4950;46.042;14.472;2023-04-10T05:26:03;98780.53;;;3.91;80.16
9822;BME280;4950;46.042;14.472;2023-04-10T05:28:30;98778.88;;;3.90;80.14
9822;BME280;4950;46.042;14.472;2023-04-10T05:30:56;98779.22;;;3.86;80.38
9822;BME280;4950;46.042;14.472;2023-04-10T05:33:23;98778.06;;;3.90;81.00
9822;BME280;4950;46.042;14.472;2023-04-10T05:35:51;98782.88;;;3.94;80.31
9822;BME280;4950;46.042;14.472;2023-04-10T05:38:18;98779.47;;;3.94;80.59
9822;BME280;4950;46.042;14.472;2023-04-10T05:40:45;98790.34;;;3.98;81.10
9822;BME280;4950;46.042;14.472;2023-04-10T05:43:13;98790.75;;;4.04;80.98
9822;BME280;4950;46.042;14.472;2023-04-10T05:45:42;98788.19;;;4.04;80.89
9822;BME280;4950;46.042;14.472;2023-04-10T05:48:09;98790.25;;;3.99;80.30
9822;BME280;4950;46.042;14.472;2023-04-10T05:50:35;98790.47;;;3.96;80.80
9822;BME280;4950;46.042;14.472;2023-04-10T05:53:02;98799.03;;;3.84;81.20
9822;BME280;4950;46.042;14.472;2023-04-10T05:55:29;98794.44;;;3.76;81.71
9822;BME280;4950;46.042;14.472;2023-04-10T05:57:56;98795.66;;;3.83;81.13
9822;BME280;4950;46.042;14.472;2023-04-10T06:00:24;98803.97;;;3.87;80.92
9822;BME280;4950;46.042;14.472;2023-04-10T06:02:51;98804.88;;;3.86;81.47
9822;BME280;4950;46.042;14.472;2023-04-10T06:05:18;98806.31;;;3.90;81.83
9822;BME280;4950;46.042;14.472;2023-04-10T06:07:44;98811.72;;;3.98;81.63
9822;BME280;4950;46.042;14.472;2023-04-10T06:10:11;98798.28;;;3.94;81.85
9822;BME280;4950;46.042;14.472;2023-04-10T06:12:37;98796.53;;;3.95;82.04
9822;BME280;4950;46.042;14.472;2023-04-10T06:15:05;98807.13;;;3.90;82.64
9822;BME280;4950;46.042;14.472;2023-04-10T06:17:33;98809.16;;;3.98;82.77
9822;BME280;4950;46.042;14.472;2023-04-10T06:20:01;98803.84;;;4.12;81.90
9822;BME280;4950;46.042;14.472;2023-04-10T06:22:29;98804.03;;;4.22;81.19
9822;BME280;4950;46.042;14.472;2023-04-10T06:24:56;98806.28;;;4.14;81.76
9822;BME280;4950;46.042;14.472;2023-04-10T06:27:23;98803.53;;;4.17;82.19
9822;BME280;4950;46.042;14.472;2023-04-10T06:29:50;98796.31;;;4.22;82.49
9822;BME280;4950;46.042;14.472;2023-04-10T06:32:16;98798.44;;;4.28;82.05
9822;BME280;4950;46.042;14.472;2023-04-10T06:34:44;98801.38;;;4.35;82.76
9822;BME280;4950;46.042;14.472;2023-04-10T06:37:11;98805.34;;;4.39;82.02
9822;BME280;4950;46.042;14.472;2023-04-10T06:39:38;98801.19;;;4.49;82.35
9822;BME280;4950;46.042;14.472;2023-04-10T06:42:04;98798.16;;;4.55;82.84
9822;BME280;4950;46.042;14.472;2023-04-10T06:44:31;98799.00;;;4.67;83.66
9822;BME280;4950;46.042;14.472;2023-04-10T06:46:57;98796.69;;;4.75;84.64
9822;BME280;4950;46.042;14.472;2023-04-10T06:49:24;98789.78;;;4.76;83.42
9822;BME280;4950;46.042;14.472;2023-04-10T06:51:52;98792.72;;;4.83;82.84
9822;BME280;4950;46.042;14.472;2023-04-10T06:54:18;98796.34;;;4.91;83.07
9822;BME280;4950;46.042;14.472;2023-04-10T06:56:45;98791.94;;;5.05;82.49
9822;BME280;4950;46.042;14.472;2023-04-10T06:59:11;98796.00;;;5.07;81.84
9822;BME280;4950;46.042;14.472;2023-04-10T07:01:38;98788.06;;;5.10;81.59
9822;BME280;4950;46.042;14.472;2023-04-10T07:04:05;98789.25;;;5.18;81.59
9822;BME280;4950;46.042;14.472;2023-04-10T07:06:31;98795.44;;;5.26;81.01
9822;BME280;4950;46.042;14.472;2023-04-10T07:08:59;98792.97;;;5.36;81.04
9822;BME280;4950;46.042;14.472;2023-04-10T07:11:25;98789.81;;;5.44;80.64
9822;BME280;4950;46.042;14.472;2023-04-10T07:13:52;98803.03;;;5.50;80.61
9822;BME280;4950;46.042;14.472;2023-04-10T07:16:22;98790.50;;;5.57;80.20
9822;BME280;4950;46.042;14.472;2023-04-10T07:18:49;98794.34;;;5.63;80.15
9822;BME280;4950;46.042;14.472;2023-04-10T07:21:15;98795.06;;;5.65;79.65
9822;BME280;4950;46.042;14.472;2023-04-10T07:23:42;98793.88;;;5.69;79.12
9822;BME280;4950;46.042;14.472;2023-04-10T07:26:10;98797.25;;;5.81;79.05
9822;BME280;4950;46.042;14.472;2023-04-10T07:28:36;98799.91;;;5.90;78.85
9822;BME280;4950;46.042;14.472;2023-04-10T07:31:03;98793.22;;;5.99;78.06
9822;BME280;4950;46.042;14.472;2023-04-10T07:33:30;98796.34;;;6.14;78.02
9822;BME280;4950;46.042;14.472;2023-04-10T07:35:57;98793.41;;;6.19;77.11
9822;BME280;4950;46.042;14.472;2023-04-10T07:38:23;98792.66;;;6.28;76.50
9822;BME280;4950;46.042;14.472;2023-04-10T07:40:54;98787.34;;;6.41;76.04
9822;BME280;4950;46.042;14.472;2023-04-10T07:43:23;98790.28;;;6.57;75.50
9822;BME280;4950;46.042;14.472;2023-04-10T07:45:50;98787.72;;;6.57;73.76
9822;BME280;4950;46.042;14.472;2023-04-10T07:48:17;98781.41;;;6.71;73.16
9822;BME280;4950;46.042;14.472;2023-04-10T07:50:43;98777.38;;;6.78;73.11
9822;BME280;4950;46.042;14.472;2023-04-10T07:53:10;98776.69;;;6.97;72.21
9822;BME280;4950;46.042;14.472;2023-04-10T07:55:37;98773.69;;;7.02;71.61
9822;BME280;4950;46.042;14.472;2023-04-10T07:58:04;98778.34;;;7.08;70.31
9822;BME280;4950;46.042;14.472;2023-04-10T08:00:32;98773.06;;;7.09;70.28
9822;BME280;4950;46.042;14.472;2023-04-10T08:02:59;98773.31;;;7.06;70.21
9822;BME280;4950;46.042;14.472;2023-04-10T08:05:26;98780.53;;;7.12;70.86
9822;BME280;4950;46.042;14.472;2023-04-10T08:07:52;98775.72;;;7.29;69.54
9822;BME280;4950;46.042;14.472;2023-04-10T08:10:19;98765.00;;;7.43;69.82
9822;BME280;4950;46.042;14.472;2023-04-10T08:12:46;98768.28;;;7.55;70.80
9822;BME280;4950;46.042;14.472;2023-04-10T08:15:12;98756.63;;;7.70;70.47
9822;BME280;4950;46.042;14.472;2023-04-10T08:17:41;98760.34;;;7.87;70.10
9822;BME280;4950;46.042;14.472;2023-04-10T08:20:08;98752.59;;;7.97;69.11
9822;BME280;4950;46.042;14.472;2023-04-10T08:22:35;98761.41;;;8.04;68.89
9822;BME280;4950;46.042;14.472;2023-04-10T08:25:02;98763.31;;;8.12;68.07
9822;BME280;4950;46.042;14.472;2023-04-10T08:27:29;98764.28;;;8.11;66.48
9822;BME280;4950;46.042;14.472;2023-04-10T08:29:55;98754.88;;;8.20;67.11
9822;BME280;4950;46.042;14.472;2023-04-10T08:32:24;98761.41;;;8.43;66.43
9822;BME280;4950;46.042;14.472;2023-04-10T08:34:53;98762.91;;;8.56;66.45
9822;BME280;4950;46.042;14.472;2023-04-10T08:37:19;98749.56;;;8.60;67.00
9822;BME280;4950;46.042;14.472;2023-04-10T08:39:46;98750.50;;;8.69;66.78
9822;BME280;4950;46.042;14.472;2023-04-10T08:42:13;98747.00;;;8.88;67.10
9822;BME280;4950;46.042;14.472;2023-04-10T08:44:39;98742.34;;;9.01;65.50
9822;BME280;4950;46.042;14.472;2023-04-10T08:47:07;98742.28;;;9.11;65.04
9822;BME280;4950;46.042;14.472;2023-04-10T08:49:39;98737.06;;;9.21;65.10
9822;BME280;4950;46.042;14.472;2023-04-10T08:52:13;98737.91;;;9.39;64.36
9822;BME280;4950;46.042;14.472;2023-04-10T08:54:42;98735.13;;;9.51;64.40
9822;BME280;4950;46.042;14.472;2023-04-10T08:57:12;98737.25;;;9.65;64.34
9822;BME280;4950;46.042;14.472;2023-04-10T08:59:42;98724.88;;;9.77;62.55
9822;BME280;4950;46.042;14.472;2023-04-10T09:02:09;98721.97;;;9.98;61.11
9822;BME280;4950;46.042;14.472;2023-04-10T09:04:35;98728.13;;;9.97;59.97
9822;BME280;4950;46.042;14.472;2023-04-10T09:07:02;98719.28;;;10.07;59.07
9822;BME280;4950;46.042;14.472;2023-04-10T09:09:30;98721.31;;;10.14;59.48
9822;BME280;4950;46.042;14.472;2023-04-10T09:11:59;98709.06;;;10.24;59.38
9822;BME280;4950;46.042;14.472;2023-04-10T09:14:28;98702.66;;;10.36;57.10
9822;BME280;4950;46.042;14.472;2023-04-10T09:17:12;98706.63;;;10.48;56.50
9822;BME280;4950;46.042;14.472;2023-04-10T09:19:39;98704.66;;;10.69;57.01
9822;BME280;4950;46.042;14.472;2023-04-10T09:22:06;98706.38;;;10.86;57.19
9822;BME280;4950;46.042;14.472;2023-04-10T09:24:36;98700.88;;;10.97;56.48
9822;BME280;4950;46.042;14.472;2023-04-10T09:27:03;98696.22;;;11.09;55.40
9822;BME280;4950;46.042;14.472;2023-04-10T09:29:41;98688.00;;;11.30;53.74
9822;BME280;4950;46.042;14.472;2023-04-10T09:32:08;98688.88;;;11.47;53.18
9822;BME280;4950;46.042;14.472;2023-04-10T09:34:51;98681.28;;;11.70;51.91
9822;BME280;4950;46.042;14.472;2023-04-10T09:37:17;98676.06;;;11.86;50.35
9822;BME280;4950;46.042;14.472;2023-04-10T09:39:46;98677.72;;;12.04;50.50
9822;BME280;4950;46.042;14.472;2023-04-10T09:42:13;98674.78;;;12.15;50.28
9822;BME280;4950;46.042;14.472;2023-04-10T09:44:40;98675.75;;;12.31;49.96
9822;BME280;4950;46.042;14.472;2023-04-10T09:47:15;98669.69;;;12.47;48.36
9822;BME280;4950;46.042;14.472;2023-04-10T09:49:44;98662.97;;;12.60;48.74
9822;BME280;4950;46.042;14.472;2023-04-10T09:52:17;98660.66;;;12.74;47.92
9822;BME280;4950;46.042;14.472;2023-04-10T09:54:45;98660.09;;;12.87;48.28
9822;BME280;4950;46.042;14.472;2023-04-10T09:57:15;98653.88;;;12.96;49.26
9822;BME280;4950;46.042;14.472;2023-04-10T09:59:43;98653.84;;;13.04;48.50
9822;BME280;4950;46.042;14.472;2023-04-10T10:02:13;98655.56;;;13.20;48.84
9822;BME280;4950;46.042;14.472;2023-04-10T10:04:44;98651.91;;;13.37;48.64
9822;BME280;4950;46.042;14.472;2023-04-10T10:07:11;98641.84;;;13.57;47.43
9822;BME280;4950;46.042;14.472;2023-04-10T10:09:37;98641.94;;;13.64;46.50
9822;BME280;4950;46.042;14.472;2023-04-10T10:12:06;98647.72;;;13.74;45.90
9822;BME280;4950;46.042;14.472;2023-04-10T10:14:39;98635.06;;;13.86;45.15
9822;BME280;4950;46.042;14.472;2023-04-10T10:17:10;98631.41;;;13.95;45.45
9822;BME280;4950;46.042;14.472;2023-04-10T10:19:41;98628.53;;;14.05;43.83
9822;BME280;4950;46.042;14.472;2023-04-10T10:22:10;98619.66;;;14.14;44.79
9822;BME280;4950;46.042;14.472;2023-04-10T10:24:39;98616.78;;;14.24;43.47
9822;BME280;4950;46.042;14.472;2023-04-10T10:27:13;98610.66;;;14.47;42.46
9822;BME280;4950;46.042;14.472;2023-04-10T10:29:43;98616.53;;;14.64;42.04
9822;BME280;4950;46.042;14.472;2023-04-10T10:32:12;98606.41;;;14.90;41.81
9822;BME280;4950;46.042;14.472;2023-04-10T10:34:39;98600.69;;;15.01;42.98
9822;BME280;4950;46.042;14.472;2023-04-10T10:37:07;98595.84;;;14.98;41.65
9822;BME280;4950;46.042;14.472;2023-04-10T10:39:43;98604.56;;;15.06;42.62
9822;BME280;4950;46.042;14.472;2023-04-10T10:42:18;98593.56;;;15.32;41.27
9822;BME280;4950;46.042;14.472;2023-04-10T10:44:49;98594.47;;;15.46;41.75
9822;BME280;4950;46.042;14.472;2023-04-10T10:47:19;98587.19;;;15.63;40.55
9822;BME280;4950;46.042;14.472;2023-04-10T10:49:55;98579.69;;;15.81;40.37
9822;BME280;4950;46.042;14.472;2023-04-10T10:52:43;98589.25;;;15.95;38.52
9822;BME280;4950;46.042;14.472;2023-04-10T10:55:29;98576.41;;;16.01;38.21
9822;BME280;4950;46.042;14.472;2023-04-10T10:57:59;98570.81;;;16.10;38.85
9822;BME280;4950;46.042;14.472;2023-04-10T11:01:06;98568.97;;;15.97;38.28
9822;BME280;4950;46.042;14.472;2023-04-10T11:03:35;98579.72;;;16.09;39.90
9822;BME280;4950;46.042;14.472;2023-04-10T11:06:04;98572.72;;;16.23;38.58
9822;BME280;4950;46.042;14.472;2023-04-10T11:08:40;98566.16;;;16.41;37.90
9822;BME280;4950;46.042;14.472;2023-04-10T11:11:10;98567.03;;;16.54;37.87
9822;BME280;4950;46.042;14.472;2023-04-10T11:13:41;98569.03;;;16.52;37.63
9822;BME280;4950;46.042;14.472;2023-04-10T11:16:09;98560.03;;;16.68;37.44
9822;BME280;4950;46.042;14.472;2023-04-10T11:19:01;98555.25;;;16.85;38.00
9822;BME280;4950;46.042;14.472;2023-04-10T11:21:28;98558.50;;;16.94;37.62
9822;BME280;4950;46.042;14.472;2023-04-10T11:24:04;98549.47;;;17.16;36.46
9822;BME280;4950;46.042;14.472;2023-04-10T11:26:35;98557.34;;;17.23;35.33
9822;BME280;4950;46.042;14.472;2023-04-10T11:29:03;98552.94;;;17.30;35.44
9822;BME280;4950;46.042;14.472;2023-04-10T11:31:32;98556.38;;;17.51;34.64
9822;BME280;4950;46.042;14.472;2023-04-10T11:34:00;98545.66;;;17.39;34.62
9822;BME280;4950;46.042;14.472;2023-04-10T11:36:27;98547.06;;;17.42;34.37
9822;BME280;4950;46.042;14.472;2023-04-10T11:38:56;98541.59;;;17.63;32.93
9822;BME280;4950;46.042;14.472;2023-04-10T11:41:27;98540.63;;;17.51;33.65
9822;BME280;4950;46.042;14.472;2023-04-10T11:43:55;98544.25;;;17.43;34.37
9822;BME280;4950;46.042;14.472;2023-04-10T11:46:22;98543.84;;;17.46;33.35
9822;BME280;4950;46.042;14.472;2023-04-10T11:48:53;98532.13;;;17.62;31.73
9822;BME280;4950;46.042;14.472;2023-04-10T11:51:20;98533.34;;;17.66;33.12
9822;BME280;4950;46.042;14.472;2023-04-10T11:53:47;98536.56;;;17.68;32.44
9822;BME280;4950;46.042;14.472;2023-04-10T11:56:18;98530.69;;;17.73;31.99
9822;BME280;4950;46.042;14.472;2023-04-10T11:58:48;98527.06;;;17.47;32.57
9822;BME280;4950;46.042;14.472;2023-04-10T12:01:15;98535.16;;;17.52;32.93
9822;BME280;4950;46.042;14.472;2023-04-10T12:03:42;98528.06;;;17.73;33.33
9822;BME280;4950;46.042;14.472;2023-04-10T12:06:11;98519.59;;;17.77;31.74
9822;BME280;4950;46.042;14.472;2023-04-10T12:08:39;98524.06;;;17.84;31.80
9822;BME280;4950;46.042;14.472;2023-04-10T12:11:07;98514.53;;;18.03;31.78
9822;BME280;4950;46.042;14.472;2023-04-10T12:13:34;98520.94;;;18.13;33.70
9822;BME280;4950;46.042;14.472;2023-04-10T12:16:05;98521.59;;;17.95;31.45
9822;BME280;4950;46.042;14.472;2023-04-10T12:18:32;98524.47;;;17.87;33.67
9822;BME280;4950;46.042;14.472;2023-04-10T12:20:59;98512.91;;;18.02;33.53
9822;BME280;4950;46.042;14.472;2023-04-10T12:23:28;98508.44;;;18.09;32.89
9822;BME280;4950;46.042;14.472;2023-04-10T12:26:06;98516.06;;;18.24;32.48
9822;BME280;4950;46.042;14.472;2023-04-10T12:28:34;98495.41;;;18.27;31.95
9822;BME280;4950;46.042;14.472;2023-04-10T12:31:01;98497.59;;;18.44;32.74
9822;BME280;4950;46.042;14.472;2023-04-10T12:33:28;98494.88;;;18.57;32.81
9822;BME280;4950;46.042;14.472;2023-04-10T12:35:55;98496.22;;;18.73;31.24
9822;BME280;4950;46.042;14.472;2023-04-10T12:38:36;98490.84;;;18.61;31.77
9822;BME280;4950;46.042;14.472;2023-04-10T12:41:03;98490.44;;;18.58;31.00
9822;BME280;4950;46.042;14.472;2023-04-10T12:43:31;98485.34;;;18.63;31.08
9822;BME280;4950;46.042;14.472;2023-04-10T12:45:59;98479.31;;;18.55;30.96
9822;BME280;4950;46.042;14.472;2023-04-10T12:48:25;98481.78;;;18.50;31.05
9822;BME280;4950;46.042;14.472;2023-04-10T12:50:52;98481.91;;;18.62;31.30
9822;BME280;4950;46.042;14.472;2023-04-10T12:53:19;98473.16;;;18.75;31.00
9822;BME280;4950;46.042;14.472;2023-04-10T12:55:58;98474.16;;;18.81;30.95
9822;BME280;4950;46.042;14.472;2023-04-10T12:58:25;98480.00;;;18.76;31.28
9822;BME280;4950;46.042;14.472;2023-04-10T13:00:53;98473.91;;;18.89;31.45
9822;BME280;4950;46.042;14.472;2023-04-10T13:03:20;98468.09;;;19.05;31.50
9822;BME280;4950;46.042;14.472;2023-04-10T13:05:47;98457.88;;;19.16;30.65
9822;BME280;4950;46.042;14.472;2023-04-10T13:08:14;98457.41;;;19.25;31.34
9822;BME280;4950;46.042;14.472;2023-04-10T13:10:40;98459.19;;;19.31;29.81
9822;BME280;4950;46.042;14.472;2023-04-10T13:13:09;98449.03;;;18.78;29.28
9822;BME280;4950;46.042;14.472;2023-04-10T13:15:37;98439.16;;;18.42;31.29
9822;BME280;4950;46.042;14.472;2023-04-10T13:18:05;98445.34;;;18.54;31.47
9822;BME280;4950;46.042;14.472;2023-04-10T13:20:33;98435.56;;;18.68;31.13
9822;BME280;4950;46.042;14.472;2023-04-10T13:22:59;98439.53;;;18.77;30.32
9822;BME280;4950;46.042;14.472;2023-04-10T13:25:27;98438.13;;;18.74;30.44